sensor_id;sensor_type;location;lat;lon;timestamp;pressure;altitude;pressure_sealevel;temperature;humidity
68193;BME280;55012;47.562;18.414;2023-12-14T00:00:25;99579.31;;;2.53;100.00
68193;BME280;55012;47.562;18.414;2023-12-14T00:02:50;99610.53;;;2.58;100.00
68193;BME280;55012;47.562;18.414;2023-12-14T00:05:16;99650.25;;;2.64;100.00
68193;BME280;55012;47.562;18.414;2023-12-14T00:07:41;99702.59;;;2.65;100.00
68193;BME280;55012;47.562;18.414;2023-12-14T00:10:07;99821.72;;;2.66;100.00
68193;BME280;55012;47.562;18.414;2023-12-14T00:12:33;100159.34;;;2.70;100.00
68193;BME280;55012;47.562;18.414;2023-12-14T00:14:58;100310.56;;;2.71;100.00
68193;BME280;55012;47.562;18.414;2023-12-14T00:17:24;100391.25;;;2.68;100.00
68193;BME280;55012;47.562;18.414;2023-12-14T00:19:49;100467.94;;;2.68;100.00
68193;BME280;55012;47.562;18.414;2023-12-14T00:22:15;100579.03;;;2.64;100.00
68193;BME280;55012;47.562;18.414;2023-12-14T00:24:40;100646.09;;;2.62;100.00
68193;BME280;55012;47.562;18.414;2023-12-14T00:27:06;100721.75;;;2.68;100.00
68193;BME280;55012;47.562;18.414;2023-12-14T00:29:31;101684.78;;;2.67;100.00
68193;BME280;55012;47.562;18.414;2023-12-14T00:31:57;101753.66;;;2.65;100.00
68193;BME280;55012;47.562;18.414;2023-12-14T00:34:22;101744.38;;;2.67;100.00
68193;BME280;55012;47.562;18.414;2023-12-14T00:36:48;101765.44;;;2.75;100.00
68193;BME280;55012;47.562;18.414;2023-12-14T00:39:13;101802.63;;;2.89;100.00
68193;BME280;55012;47.562;18.414;2023-12-14T00:41:38;101843.00;;;2.99;100.00
68193;BME280;55012;47.562;18.414;2023-12-14T00:44:04;101839.75;;;3.08;100.00
68193;BME280;55012;47.562;18.414;2023-12-14T00:46:29;100183.84;;;3.13;100.00
68193;BME280;55012;47.562;18.414;2023-12-14T00:48:55;100155.22;;;3.19;100.00
68193;BME280;55012;47.562;18.414;2023-12-14T00:51:20;99748.56;;;3.20;100.00
68193;BME280;55012;47.562;18.414;2023-12-14T00:53:46;99730.09;;;3.24;100.00
68193;BME280;55012;47.562;18.414;2023-12-14T00:56:11;99731.84;;;3.33;100.00
68193;BME280;55012;47.562;18.414;2023-12-14T00:58:37;99716.81;;;3.37;100.00
68193;BME280;55012;47.562;18.414;2023-12-14T01:01:02;99820.50;;;3.46;100.00
68193;BME280;55012;47.562;18.414;2023-12-14T01:03:28;99828.47;;;3.51;100.00
68193;BME280;55012;47.562;18.414;2023-12-14T01:05:53;99836.50;;;3.51;100.00
68193;BME280;55012;47.562;18.414;2023-12-14T01:08:18;99879.78;;;3.58;100.00
68193;BME280;55012;47.562;18.414;2023-12-14T01:10:44;99901.66;;;3.65;100.00
68193;BME280;55012;47.562;18.414;2023-12-14T01:13:10;99900.56;;;3.66;100.00
68193;BME280;55012;47.562;18.414;2023-12-14T01:15:35;99901.66;;;3.65;100.00
68193;BME280;55012;47.562;18.414;2023-12-14T01:18:00;99890.69;;;3.61;100.00
68193;BME280;55012;47.562;18.414;2023-12-14T01:20:26;99902.78;;;3.59;100.00
68193;BME280;55012;47.562;18.414;2023-12-14T01:22:52;99910.81;;;3.54;100.00
68193;BME280;55012;47.562;18.414;2023-12-14T01:25:17;99899.63;;;3.52;100.00
68193;BME280;55012;47.562;18.414;2023-12-14T01:27:43;99888.69;;;3.48;100.00
68193;BME280;55012;47.562;18.414;2023-12-14T01:30:09;99888.44;;;3.45;100.00
68193;BME280;55012;47.562;18.414;2023-12-14T01:32:35;99879.16;;;3.37;100.00
68193;BME280;55012;47.562;18.414;2023-12-14T01:35:00;99854.09;;;3.28;100.00
68193;BME280;55012;47.562;18.414;2023-12-14T01:37:26;99839.75;;;3.19;100.00
68193;BME280;55012;47.562;18.414;2023-12-14T01:39:51;99820.84;;;3.10;100.00
68193;BME280;55012;47.562;18.414;2023-12-14T01:42:17;99805.44;;;2.97;100.00
68193;BME280;55012;47.562;18.414;2023-12-14T01:44:42;99773.25;;;2.83;100.00
68193;BME280;55012;47.562;18.414;2023-12-14T01:47:08;99769.28;;;2.75;100.00
68193;BME280;55012;47.562;18.414;2023-12-14T01:49:33;99766.94;;;2.69;100.00
68193;BME280;55012;47.562;18.414;2023-12-14T01:51:59;99749.06;;;2.64;100.00
68193;BME280;55012;47.562;18.414;2023-12-14T01:54:24;99759.25;;;2.62;100.00
68193;BME280;55012;47.562;18.414;2023-12-14T01:56:50;99767.03;;;2.59;100.00
68193;BME280;55012;47.562;18.414;2023-12-14T01:59:15;99766.22;;;2.58;100.00
68193;BME280;55012;47.562;18.414;2023-12-14T02:01:43;99772.38;;;2.59;100.00
68193;BME280;55012;47.562;18.414;2023-12-14T02:04:10;99783.84;;;2.59;100.00
68193;BME280;55012;47.562;18.414;2023-12-14T02:06:36;99789.13;;;2.64;100.00
68193;BME280;55012;47.562;18.414;2023-12-14T02:09:01;99797.94;;;2.65;100.00
68193;BME280;55012;47.562;18.414;2023-12-14T02:11:27;99808.63;;;2.65;100.00
68193;BME280;55012;47.562;18.414;2023-12-14T02:13:53;99820.66;;;2.67;100.00
68193;BME280;55012;47.562;18.414;2023-12-14T02:16:18;99818.50;;;2.64;100.00
68193;BME280;55012;47.562;18.414;2023-12-14T02:18:44;99830.28;;;2.63;100.00
68193;BME280;55012;47.562;18.414;2023-12-14T02:21:09;99850.31;;;2.66;100.00
68193;BME280;55012;47.562;18.414;2023-12-14T02:23:35;99863.38;;;2.67;100.00
68193;BME280;55012;47.562;18.414;2023-12-14T02:26:00;99863.63;;;2.71;100.00
68193;BME280;55012;47.562;18.414;2023-12-14T02:28:26;99876.97;;;2.71;100.00
68193;BME280;55012;47.562;18.414;2023-12-14T02:30:51;99884.19;;;2.70;100.00
68193;BME280;55012;47.562;18.414;2023-12-14T02:33:17;99861.47;;;2.73;100.00
68193;BME280;55012;47.562;18.414;2023-12-14T02:35:43;99882.59;;;2.74;100.00
68193;BME280;55012;47.562;18.414;2023-12-14T02:38:08;99894.59;;;2.77;100.00
68193;BME280;55012;47.562;18.414;2023-12-14T02:40:35;99917.25;;;2.79;100.00
68193;BME280;55012;47.562;18.414;2023-12-14T02:43:03;99919.13;;;2.79;100.00
68193;BME280;55012;47.562;18.414;2023-12-14T02:45:29;99922.09;;;2.77;100.00
68193;BME280;55012;47.562;18.414;2023-12-14T02:47:54;99928.50;;;2.76;100.00
68193;BME280;55012;47.562;18.414;2023-12-14T02:50:19;99940.78;;;2.77;100.00
68193;BME280;55012;47.562;18.414;2023-12-14T02:52:45;99943.75;;;2.76;100.00
68193;BME280;55012;47.562;18.414;2023-12-14T02:55:10;99965.13;;;2.76;100.00
68193;BME280;55012;47.562;18.414;2023-12-14T02:57:36;99969.09;;;2.78;100.00
68193;BME280;55012;47.562;18.414;2023-12-14T03:00:01;99981.66;;;2.78;100.00
68193;BME280;55012;47.562;18.414;2023-12-14T03:02:27;100015.59;;;2.83;100.00
68193;BME280;55012;47.562;18.414;2023-12-14T03:04:53;100022.25;;;2.85;100.00
68193;BME280;55012;47.562;18.414;2023-12-14T03:07:18;100052.97;;;2.88;100.00
68193;BME280;55012;47.562;18.414;2023-12-14T03:09:44;100073.81;;;2.91;100.00
68193;BME280;55012;47.562;18.414;2023-12-14T03:12:10;100082.34;;;2.93;100.00
68193;BME280;55012;47.562;18.414;2023-12-14T03:14:36;100086.38;;;2.90;100.00
68193;BME280;55012;47.562;18.414;2023-12-14T03:17:01;100081.03;;;2.90;100.00
68193;BME280;55012;47.562;18.414;2023-12-14T03:19:28;100116.56;;;2.91;100.00
68193;BME280;55012;47.562;18.414;2023-12-14T03:21:53;100118.97;;;2.92;100.00
68193;BME280;55012;47.562;18.414;2023-12-14T03:24:19;100105.59;;;2.92;100.00
68193;BME280;55012;47.562;18.414;2023-12-14T03:26:45;100130.75;;;2.86;100.00
68193;BME280;55012;47.562;18.414;2023-12-14T03:29:10;100137.16;;;2.80;100.00
68193;BME280;55012;47.562;18.414;2023-12-14T03:31:36;100142.81;;;2.73;100.00
68193;BME280;55012;47.562;18.414;2023-12-14T03:34:01;100153.22;;;2.70;100.00
68193;BME280;55012;47.562;18.414;2023-12-14T03:36:27;100170.31;;;2.69;100.00
68193;BME280;55012;47.562;18.414;2023-12-14T03:38:53;100177.53;;;2.68;100.00
68193;BME280;55012;47.562;18.414;2023-12-14T03:41:19;100204.78;;;2.70;100.00
68193;BME280;55012;47.562;18.414;2023-12-14T03:43:44;100204.50;;;2.72;100.00
68193;BME280;55012;47.562;18.414;2023-12-14T03:46:10;100196.50;;;2.67;100.00
68193;BME280;55012;47.562;18.414;2023-12-14T03:48:36;100205.88;;;2.59;100.00
68193;BME280;55012;47.562;18.414;2023-12-14T03:51:04;100214.41;;;2.61;100.00
68193;BME280;55012;47.562;18.414;2023-12-14T03:53:30;100218.16;;;2.60;100.00
68193;BME280;55012;47.562;18.414;2023-12-14T03:55:57;100215.72;;;2.64;100.00
68193;BME280;55012;47.562;18.414;2023-12-14T03:58:23;100223.75;;;2.64;100.00
68193;BME280;55012;47.562;18.414;2023-12-14T04:00:49;100288.66;;;2.64;100.00
68193;BME280;55012;47.562;18.414;2023-12-14T04:03:14;100292.69;;;2.67;100.00
68193;BME280;55012;47.562;18.414;2023-12-14T04:05:39;100284.66;;;2.67;100.00
68193;BME280;55012;47.562;18.414;2023-12-14T04:08:05;100282.53;;;2.69;100.00
68193;BME280;55012;47.562;18.414;2023-12-14T04:10:31;100274.25;;;2.70;100.00
68193;BME280;55012;47.562;18.414;2023-12-14T04:12:56;100269.44;;;2.72;100.00
68193;BME280;55012;47.562;18.414;2023-12-14T04:15:21;100284.41;;;2.68;100.00
68193;BME280;55012;47.562;18.414;2023-12-14T04:17:47;100285.22;;;2.74;100.00
68193;BME280;55012;47.562;18.414;2023-12-14T04:20:14;100299.34;;;2.79;100.00
68193;BME280;55012;47.562;18.414;2023-12-14T04:22:43;100288.13;;;2.88;100.00
68193;BME280;55012;47.562;18.414;2023-12-14T04:25:10;100304.97;;;2.93;100.00
68193;BME280;55012;47.562;18.414;2023-12-14T04:27:35;100319.66;;;2.96;100.00
68193;BME280;55012;47.562;18.414;2023-12-14T04:30:01;100312.47;;;2.91;100.00
68193;BME280;55012;47.562;18.414;2023-12-14T04:32:27;100316.19;;;2.95;100.00
68193;BME280;55012;47.562;18.414;2023-12-14T04:34:52;100319.66;;;2.96;100.00
68193;BME280;55012;47.562;18.414;2023-12-14T04:37:18;100319.94;;;2.89;100.00
68193;BME280;55012;47.562;18.414;2023-12-14T04:39:43;100314.06;;;2.87;100.00
68193;BME280;55012;47.562;18.414;2023-12-14T04:42:09;100311.13;;;2.78;100.00
68193;BME280;55012;47.562;18.414;2023-12-14T04:44:34;100320.75;;;2.74;100.00
68193;BME280;55012;47.562;18.414;2023-12-14T04:47:00;100317.53;;;2.67;100.00
68193;BME280;55012;47.562;18.414;2023-12-14T04:49:25;100312.44;;;2.61;100.00
68193;BME280;55012;47.562;18.414;2023-12-14T04:51:51;100309.50;;;2.62;100.00
68193;BME280;55012;47.562;18.414;2023-12-14T04:54:16;100306.03;;;2.67;100.00
68193;BME280;55012;47.562;18.414;2023-12-14T04:56:45;100312.97;;;2.73;100.00
68193;BME280;55012;47.562;18.414;2023-12-14T04:59:11;100320.19;;;2.77;100.00
68193;BME280;55012;47.562;18.414;2023-12-14T05:01:36;100319.16;;;2.84;100.00
68193;BME280;55012;47.562;18.414;2023-12-14T05:04:02;100202.63;;;2.88;100.00
68193;BME280;55012;47.562;18.414;2023-12-14T05:06:28;100207.16;;;2.87;100.00
68193;BME280;55012;47.562;18.414;2023-12-14T05:08:53;100197.28;;;2.88;100.00
68193;BME280;55012;47.562;18.414;2023-12-14T05:11:19;100191.94;;;2.83;100.00
68193;BME280;55012;47.562;18.414;2023-12-14T05:13:44;100184.22;;;2.76;100.00
68193;BME280;55012;47.562;18.414;2023-12-14T05:16:14;100179.13;;;2.74;100.00
68193;BME280;55012;47.562;18.414;2023-12-14T05:18:40;100184.22;;;2.76;100.00
68193;BME280;55012;47.562;18.414;2023-12-14T05:21:05;100190.63;;;2.75;100.00
68193;BME280;55012;47.562;18.414;2023-12-14T05:23:31;100177.25;;;2.70;100.00
68193;BME280;55012;47.562;18.414;2023-12-14T05:25:56;100158.28;;;2.71;100.00
68193;BME280;55012;47.562;18.414;2023-12-14T05:28:22;100153.22;;;2.75;100.00
68193;BME280;55012;47.562;18.414;2023-12-14T05:30:48;100155.06;;;2.79;100.00
68193;BME280;55012;47.562;18.414;2023-12-14T05:33:13;100146.78;;;2.81;100.00
68193;BME280;55012;47.562;18.414;2023-12-14T05:35:39;100174.56;;;2.85;100.00
68193;BME280;55012;47.562;18.414;2023-12-14T05:38:04;100176.16;;;2.81;100.00
68193;BME280;55012;47.562;18.414;2023-12-14T05:40:30;100170.56;;;2.77;100.00
68193;BME280;55012;47.562;18.414;2023-12-14T05:42:56;100193.03;;;2.76;100.00
68193;BME280;55012;47.562;18.414;2023-12-14T05:45:22;100189.03;;;2.74;100.00
68193;BME280;55012;47.562;18.414;2023-12-14T05:47:47;100190.34;;;2.71;100.00
68193;BME280;55012;47.562;18.414;2023-12-14T05:50:13;100173.25;;;2.72;100.00
68193;BME280;55012;47.562;18.414;2023-12-14T05:52:39;100177.00;;;2.71;100.00
68193;BME280;55012;47.562;18.414;2023-12-14T05:55:10;100189.81;;;2.74;100.00
68193;BME280;55012;47.562;18.414;2023-12-14T05:57:36;100185.28;;;2.75;100.00
68193;BME280;55012;47.562;18.414;2023-12-14T06:00:02;100188.47;;;2.77;100.00
68193;BME280;55012;47.562;18.414;2023-12-14T06:02:29;100186.59;;;2.77;100.00
68193;BME280;55012;47.562;18.414;2023-12-14T06:04:55;100185.53;;;2.78;100.00
68193;BME280;55012;47.562;18.414;2023-12-14T06:07:23;100178.31;;;2.79;100.00
68193;BME280;55012;47.562;18.414;2023-12-14T06:09:48;100192.19;;;2.86;100.00
68193;BME280;55012;47.562;18.414;2023-12-14T06:12:14;100184.72;;;2.93;100.00
68193;BME280;55012;47.562;18.414;2023-12-14T06:14:40;100191.91;;;3.03;100.00
68193;BME280;55012;47.562;18.414;2023-12-14T06:17:05;100199.88;;;3.13;100.00
68193;BME280;55012;47.562;18.414;2023-12-14T06:19:30;100209.25;;;3.16;100.00
68193;BME280;55012;47.562;18.414;2023-12-14T06:21:56;100217.53;;;3.19;100.00
68193;BME280;55012;47.562;18.414;2023-12-14T06:24:21;100221.78;;;3.20;100.00
68193;BME280;55012;47.562;18.414;2023-12-14T06:26:47;100208.19;;;3.17;100.00
68193;BME280;55012;47.562;18.414;2023-12-14T06:29:13;100221.03;;;3.09;100.00
68193;BME280;55012;47.562;18.414;2023-12-14T06:31:39;100231.19;;;3.07;100.00
68193;BME280;55012;47.562;18.414;2023-12-14T06:34:05;100234.94;;;3.06;100.00
68193;BME280;55012;47.562;18.414;2023-12-14T06:36:31;100232.00;;;3.03;100.00
68193;BME280;55012;47.562;18.414;2023-12-14T06:38:57;100233.34;;;3.00;100.00
68193;BME280;55012;47.562;18.414;2023-12-14T06:41:25;100242.41;;;3.04;100.00
68193;BME280;55012;47.562;18.414;2023-12-14T06:43:51;100248.84;;;3.08;100.00
68193;BME280;55012;47.562;18.414;2023-12-14T06:46:17;100246.44;;;3.07;100.00
68193;BME280;55012;47.562;18.414;2023-12-14T06:48:43;100248.28;;;3.12;100.00
68193;BME280;55012;47.562;18.414;2023-12-14T06:51:08;100251.22;;;3.15;100.00
68193;BME280;55012;47.562;18.414;2023-12-14T06:53:34;100254.16;;;3.14;100.00
68193;BME280;55012;47.562;18.414;2023-12-14T06:56:00;100250.69;;;3.13;100.00
68193;BME280;55012;47.562;18.414;2023-12-14T06:58:25;100255.78;;;3.15;100.00
68193;BME280;55012;47.562;18.414;2023-12-14T07:00:51;100265.41;;;3.16;100.00
68193;BME280;55012;47.562;18.414;2023-12-14T07:03:16;100266.44;;;3.20;100.00
68193;BME280;55012;47.562;18.414;2023-12-14T07:05:42;100272.03;;;3.28;100.00
68193;BME280;55012;47.562;18.414;2023-12-14T07:08:07;100277.13;;;3.40;100.00
68193;BME280;55012;47.562;18.414;2023-12-14T07:10:33;100283.50;;;3.49;100.00
68193;BME280;55012;47.562;18.414;2023-12-14T07:12:59;100296.03;;;3.59;100.00
68193;BME280;55012;47.562;18.414;2023-12-14T07:15:24;100301.69;;;3.57;100.00
68193;BME280;55012;47.562;18.414;2023-12-14T07:17:50;100304.88;;;3.59;100.00
68193;BME280;55012;47.562;18.414;2023-12-14T07:20:15;100310.22;;;3.64;100.00
68193;BME280;55012;47.562;18.414;2023-12-14T07:22:41;100322.25;;;3.67;100.00
68193;BME280;55012;47.562;18.414;2023-12-14T07:25:07;100275.91;;;3.72;100.00
68193;BME280;55012;47.562;18.414;2023-12-14T07:27:33;100273.78;;;3.74;100.00
68193;BME280;55012;47.562;18.414;2023-12-14T07:29:58;100281.78;;;3.84;100.00
68193;BME280;55012;47.562;18.414;2023-12-14T07:32:24;100282.28;;;3.86;100.00
68193;BME280;55012;47.562;18.414;2023-12-14T07:34:49;100284.44;;;3.89;100.00
68193;BME280;55012;47.562;18.414;2023-12-14T07:37:15;100291.91;;;3.92;100.00
68193;BME280;55012;47.562;18.414;2023-12-14T07:39:40;100293.22;;;4.00;100.00
68193;BME280;55012;47.562;18.414;2023-12-14T07:42:06;100298.50;;;4.10;100.00
68193;BME280;55012;47.562;18.414;2023-12-14T07:44:32;100307.03;;;4.22;100.00
68193;BME280;55012;47.562;18.414;2023-12-14T07:46:59;100301.91;;;4.31;100.00
68193;BME280;55012;47.562;18.414;2023-12-14T07:49:25;100298.38;;;4.30;100.00
68193;BME280;55012;47.562;18.414;2023-12-14T07:51:51;100304.56;;;4.31;100.00
68193;BME280;55012;47.562;18.414;2023-12-14T07:54:17;100304.28;;;4.32;100.00
68193;BME280;55012;47.562;18.414;2023-12-14T07:56:43;100309.59;;;4.37;100.00
68193;BME280;55012;47.562;18.414;2023-12-14T07:59:09;100311.47;;;4.42;100.00
68193;BME280;55012;47.562;18.414;2023-12-14T08:01:35;100322.16;;;4.47;100.00
68193;BME280;55012;47.562;18.414;2023-12-14T08:04:01;100309.06;;;4.40;100.00
68193;BME280;55012;47.562;18.414;2023-12-14T08:06:27;100306.94;;;4.37;100.00
68193;BME280;55012;47.562;18.414;2023-12-14T08:08:52;100313.59;;;4.45;100.00
68193;BME280;55012;47.562;18.414;2023-12-14T08:11:18;100310.09;;;4.49;100.00
68193;BME280;55012;47.562;18.414;2023-12-14T08:13:44;100310.91;;;4.45;100.00
68193;BME280;55012;47.562;18.414;2023-12-14T08:16:09;100298.63;;;4.39;100.00
68193;BME280;55012;47.562;18.414;2023-12-14T08:18:36;100287.44;;;4.32;100.00
68193;BME280;55012;47.562;18.414;2023-12-14T08:21:02;100286.88;;;4.30;100.00
68193;BME280;55012;47.562;18.414;2023-12-14T08:23:28;100277.50;;;4.32;100.00
68193;BME280;55012;47.562;18.414;2023-12-14T08:25:55;100269.16;;;4.39;100.00
68193;BME280;55012;47.562;18.414;2023-12-14T08:28:24;100268.03;;;4.45;100.00
68193;BME280;55012;47.562;18.414;2023-12-14T08:30:51;100262.44;;;4.41;100.00
68193;BME280;55012;47.562;18.414;2023-12-14T08:33:17;100260.28;;;4.43;100.00
68193;BME280;55012;47.562;18.414;2023-12-14T08:35:42;100258.69;;;4.42;100.00
68193;BME280;55012;47.562;18.414;2023-12-14T08:38:08;100245.28;;;4.42;100.00
68193;BME280;55012;47.562;18.414;2023-12-14T08:40:33;100248.19;;;4.46;100.00
68193;BME280;55012;47.562;18.414;2023-12-14T08:42:59;100225.47;;;4.38;100.00
68193;BME280;55012;47.562;18.414;2023-12-14T08:45:24;100222.28;;;4.36;100.00
68193;BME280;55012;47.562;18.414;2023-12-14T08:47:50;100217.19;;;4.40;100.00
68193;BME280;55012;47.562;18.414;2023-12-14T08:50:15;100203.78;;;4.40;100.00
68193;BME280;55012;47.562;18.414;2023-12-14T08:52:41;100191.19;;;4.40;100.00
68193;BME280;55012;47.562;18.414;2023-12-14T08:55:07;100187.97;;;4.38;100.00
68193;BME280;55012;47.562;18.414;2023-12-14T08:57:34;100180.47;;;4.40;100.00
68193;BME280;55012;47.562;18.414;2023-12-14T09:00:00;100171.44;;;4.31;100.00
68193;BME280;55012;47.562;18.414;2023-12-14T09:02:26;100148.69;;;4.29;100.00
68193;BME280;55012;47.562;18.414;2023-12-14T09:04:52;100130.53;;;4.20;100.00
68193;BME280;55012;47.562;18.414;2023-12-14T09:07:17;100110.31;;;4.04;100.00
68193;BME280;55012;47.562;18.414;2023-12-14T09:09:43;100089.25;;;3.98;100.00
68193;BME280;55012;47.562;18.414;2023-12-14T09:12:09;100095.63;;;4.02;100.00
68193;BME280;55012;47.562;18.414;2023-12-14T09:14:34;100099.53;;;4.14;100.00
68193;BME280;55012;47.562;18.414;2023-12-14T09:17:00;100078.84;;;4.20;100.00
68193;BME280;55012;47.562;18.414;2023-12-14T09:19:26;100044.50;;;4.27;100.00
68193;BME280;55012;47.562;18.414;2023-12-14T09:21:51;100024.34;;;4.35;100.00
68193;BME280;55012;47.562;18.414;2023-12-14T09:24:16;99998.31;;;4.40;100.00
68193;BME280;55012;47.562;18.414;2023-12-14T09:26:43;99959.66;;;4.46;100.00
68193;BME280;55012;47.562;18.414;2023-12-14T09:29:09;99940.09;;;4.46;100.00
68193;BME280;55012;47.562;18.414;2023-12-14T09:31:34;99911.06;;;4.53;100.00
68193;BME280;55012;47.562;18.414;2023-12-14T09:34:00;99877.97;;;4.63;100.00
68193;BME280;55012;47.562;18.414;2023-12-14T09:36:26;99839.81;;;4.71;100.00
68193;BME280;55012;47.562;18.414;2023-12-14T09:38:51;99810.25;;;4.76;100.00
68193;BME280;55012;47.562;18.414;2023-12-14T09:41:17;99764.34;;;4.83;100.00
68193;BME280;55012;47.562;18.414;2023-12-14T09:43:42;99718.38;;;4.89;100.00
68193;BME280;55012;47.562;18.414;2023-12-14T09:46:09;99644.81;;;4.95;100.00
68193;BME280;55012;47.562;18.414;2023-12-14T09:48:35;99545.31;;;4.97;100.00
68193;BME280;55012;47.562;18.414;2023-12-14T09:51:00;99446.06;;;4.88;100.00
68193;BME280;55012;47.562;18.414;2023-12-14T09:53:26;99331.38;;;4.85;100.00
68193;BME280;55012;47.562;18.414;2023-12-14T09:55:51;99230.75;;;4.79;100.00
68193;BME280;55012;47.562;18.414;2023-12-14T09:58:17;99085.72;;;4.72;100.00
68193;BME280;55012;47.562;18.414;2023-12-14T10:00:45;99255.75;;;4.66;100.00
68193;BME280;55012;47.562;18.414;2023-12-14T10:03:24;99465.06;;;4.64;100.00
68193;BME280;55012;47.562;18.414;2023-12-14T10:05:52;99610.81;;;4.63;100.00
68193;BME280;55012;47.562;18.414;2023-12-14T10:08:18;99669.91;;;4.72;100.00
68193;BME280;55012;47.562;18.414;2023-12-14T10:10:46;99688.06;;;4.75;100.00
68193;BME280;55012;47.562;18.414;2023-12-14T10:13:12;99677.75;;;4.82;100.00
68193;BME280;55012;47.562;18.414;2023-12-14T10:15:45;99662.06;;;4.75;100.00
68193;BME280;55012;47.562;18.414;2023-12-14T10:18:11;99648.25;;;4.68;100.00
68193;BME280;55012;47.562;18.414;2023-12-14T10:20:37;99657.31;;;4.72;100.00
68193;BME280;55012;47.562;18.414;2023-12-14T10:23:05;99646.59;;;4.72;100.00
68193;BME280;55012;47.562;18.414;2023-12-14T10:25:31;99640.03;;;4.78;100.00
68193;BME280;55012;47.562;18.414;2023-12-14T10:27:57;99628.19;;;4.79;100.00
68193;BME280;55012;47.562;18.414;2023-12-14T10:30:23;99639.94;;;4.84;100.00
68193;BME280;55012;47.562;18.414;2023-12-14T10:32:48;99637.97;;;4.89;100.00
68193;BME280;55012;47.562;18.414;2023-12-14T10:35:16;99629.13;;;4.89;100.00
68193;BME280;55012;47.562;18.414;2023-12-14T10:37:42;99631.81;;;4.89;100.00
68193;BME280;55012;47.562;18.414;2023-12-14T10:40:09;99626.63;;;4.92;100.00
68193;BME280;55012;47.562;18.414;2023-12-14T10:42:39;99636.25;;;4.93;100.00
68193;BME280;55012;47.562;18.414;2023-12-14T10:45:08;99617.81;;;4.92;100.00
68193;BME280;55012;47.562;18.414;2023-12-14T10:47:38;99613.53;;;4.91;100.00
68193;BME280;55012;47.562;18.414;2023-12-14T10:50:05;99605.69;;;4.94;100.00
68193;BME280;55012;47.562;18.414;2023-12-14T10:52:31;99594.16;;;4.94;100.00
68193;BME280;55012;47.562;18.414;2023-12-14T10:55:06;99562.91;;;4.89;100.00
68193;BME280;55012;47.562;18.414;2023-12-14T10:57:34;99579.19;;;4.93;100.00
68193;BME280;55012;47.562;18.414;2023-12-14T11:00:00;99569.16;;;4.98;100.00
68193;BME280;55012;47.562;18.414;2023-12-14T11:02:27;99579.75;;;5.03;100.00
68193;BME280;55012;47.562;18.414;2023-12-14T11:04:57;99569.31;;;5.16;100.00
68193;BME280;55012;47.562;18.414;2023-12-14T11:08:24;99579.84;;;5.12;100.00
68193;BME280;55012;47.562;18.414;2023-12-14T11:10:41;99570.13;;;5.02;100.00
68193;BME280;55012;47.562;18.414;2023-12-14T11:13:08;99561.00;;;5.03;100.00
68193;BME280;55012;47.562;18.414;2023-12-14T11:15:46;99556.13;;;5.05;100.00
68193;BME280;55012;47.562;18.414;2023-12-14T11:20:51;99577.97;;;5.13;100.00
68193;BME280;55012;47.562;18.414;2023-12-14T11:25:51;99577.47;;;5.24;100.00
68193;BME280;55012;47.562;18.414;2023-12-14T11:28:17;99561.38;;;5.24;100.00
68193;BME280;55012;47.562;18.414;2023-12-14T11:30:46;99570.69;;;5.27;100.00
68193;BME280;55012;47.562;18.414;2023-12-14T11:33:13;99579.91;;;5.34;100.00
68193;BME280;55012;47.562;18.414;2023-12-14T11:35:40;99569.16;;;5.48;100.00
68193;BME280;55012;47.562;18.414;2023-12-14T11:38:06;99576.19;;;5.58;100.00
68193;BME280;55012;47.562;18.414;2023-12-14T11:40:44;99564.03;;;5.60;100.00
68193;BME280;55012;47.562;18.414;2023-12-14T11:43:10;99569.41;;;5.60;100.00
68193;BME280;55012;47.562;18.414;2023-12-14T11:45:40;99568.81;;;5.63;100.00
68193;BME280;55012;47.562;18.414;2023-12-14T11:48:10;99554.97;;;5.70;100.00
68193;BME280;55012;47.562;18.414;2023-12-14T11:50:38;99559.78;;;5.82;100.00
68193;BME280;55012;47.562;18.414;2023-12-14T11:53:04;99564.75;;;5.88;100.00
68193;BME280;55012;47.562;18.414;2023-12-14T11:55:31;99556.78;;;5.97;100.00
68193;BME280;55012;47.562;18.414;2023-12-14T11:57:58;99570.25;;;6.06;100.00
68193;BME280;55012;47.562;18.414;2023-12-14T12:00:25;99557.00;;;6.09;100.00
68193;BME280;55012;47.562;18.414;2023-12-14T12:02:51;99556.03;;;6.05;100.00
68193;BME280;55012;47.562;18.414;2023-12-14T12:05:17;99561.56;;;6.09;100.00
68193;BME280;55012;47.562;18.414;2023-12-14T12:07:44;99567.16;;;6.12;100.00
68193;BME280;55012;47.562;18.414;2023-12-14T12:10:10;99569.75;;;6.04;100.00
68193;BME280;55012;47.562;18.414;2023-12-14T12:12:36;99556.53;;;6.07;100.00
68193;BME280;55012;47.562;18.414;2023-12-14T12:15:03;99564.88;;;6.06;100.00
68193;BME280;55012;47.562;18.414;2023-12-14T12:17:28;99557.00;;;6.09;100.00
68193;BME280;55012;47.562;18.414;2023-12-14T12:19:54;99560.16;;;6.11;100.00
68193;BME280;55012;47.562;18.414;2023-12-14T12:22:19;99551.38;;;6.19;100.00
68193;BME280;55012;47.562;18.414;2023-12-14T12:24:45;99550.94;;;6.26;100.00
68193;BME280;55012;47.562;18.414;2023-12-14T12:27:10;99557.53;;;6.20;100.00
68193;BME280;55012;47.562;18.414;2023-12-14T12:29:36;99535.75;;;6.22;100.00
68193;BME280;55012;47.562;18.414;2023-12-14T12:32:01;99551.59;;;6.32;100.00
68193;BME280;55012;47.562;18.414;2023-12-14T12:34:26;99538.75;;;6.29;100.00
68193;BME280;55012;47.562;18.414;2023-12-14T12:36:53;99542.28;;;6.29;100.00
68193;BME280;55012;47.562;18.414;2023-12-14T12:39:19;99532.59;;;6.28;100.00
68193;BME280;55012;47.562;18.414;2023-12-14T12:41:45;99537.19;;;6.28;100.00
68193;BME280;55012;47.562;18.414;2023-12-14T12:44:10;99531.81;;;6.28;100.00